createdAt,value
2022-08-16T00:02:31.454Z,58.06
2022-08-16T00:05:05.896Z,58.18
2022-08-16T00:07:56.379Z,58.26
2022-08-16T00:11:07.292Z,58.39
2022-08-16T00:13:56.457Z,58.44
2022-08-16T00:17:06.292Z,58.36
2022-08-16T00:19:41.481Z,58.69
2022-08-16T00:22:15.226Z,58.72
2022-08-16T00:26:36.100Z,58.84
2022-08-16T00:28:36.426Z,59.00
2022-08-16T00:32:18.267Z,58.93
2022-08-16T00:35:56.561Z,59.07
2022-08-16T00:39:24.283Z,59.31
2022-08-16T00:43:16.900Z,59.40
2022-08-16T00:50:39.598Z,59.69
2022-08-16T00:53:43.429Z,59.60
2022-08-16T00:56:56.264Z,59.85
2022-08-16T00:59:54.870Z,59.99
2022-08-16T01:02:47.001Z,60.23
2022-08-16T01:05:42.459Z,60.31
2022-08-16T01:08:35.846Z,60.42
2022-08-16T01:11:29.377Z,60.47
2022-08-16T01:14:29.730Z,60.60
2022-08-16T01:17:25.711Z,60.70
2022-08-16T01:20:51.531Z,60.70
2022-08-16T01:24:52.688Z,60.81
2022-08-16T01:27:44.373Z,61.01
2022-08-16T01:30:57.791Z,61.02
2022-08-16T01:33:44.438Z,61.13
2022-08-16T01:36:18.669Z,61.20
2022-08-16T01:38:57.017Z,61.21
2022-08-16T01:41:32.883Z,61.29
2022-08-16T01:44:37.818Z,61.28
2022-08-16T01:47:12.843Z,61.72
2022-08-16T01:50:43.517Z,61.50
2022-08-16T01:53:11.047Z,61.66
2022-08-16T01:56:26.228Z,61.88
2022-08-16T01:59:21.144Z,61.93
2022-08-16T02:02:00.070Z,61.96
2022-08-16T02:04:49.626Z,62.10
2022-08-16T02:07:33.548Z,62.21
2022-08-16T02:10:09.456Z,62.31
2022-08-16T02:12:51.439Z,62.39
2022-08-16T02:15:38.730Z,62.56
2022-08-16T02:18:20.842Z,62.59
2022-08-16T02:22:08.927Z,62.68
2022-08-16T02:26:02.614Z,62.69
2022-08-16T02:29:34.586Z,62.95
2022-08-16T02:33:09.296Z,62.96
2022-08-16T02:36:06.435Z,63.08
2022-08-16T02:39:33.819Z,63.09
2022-08-16T02:42:59.306Z,63.30
2022-08-16T02:46:16.595Z,63.40
2022-08-16T02:49:08.611Z,63.53
2022-08-16T02:52:43.831Z,63.52
2022-08-16T02:59:21.283Z,63.74
2022-08-16T03:01:51.420Z,63.78
2022-08-16T03:04:50.396Z,63.90
2022-08-16T03:07:27.512Z,64.05
2022-08-16T03:10:03.057Z,64.08
2022-08-16T03:12:56.282Z,64.21
2022-08-16T03:15:37.519Z,64.31
2022-08-16T03:18:40.200Z,64.33
2022-08-16T03:21:18.556Z,64.67
2022-08-16T03:24:29.280Z,64.68
2022-08-16T03:27:59.851Z,64.62
2022-08-16T03:31:52.441Z,64.85
2022-08-16T03:35:41.620Z,64.93
2022-08-16T03:39:20.285Z,65.07
2022-08-16T03:43:00.440Z,65.09
2022-08-16T03:46:50.488Z,65.26
2022-08-16T03:50:26.094Z,65.51
2022-08-16T03:53:42.759Z,65.44
2022-08-16T03:57:36.432Z,65.49
2022-08-16T04:01:02.582Z,65.65
2022-08-16T04:05:04.029Z,65.67
2022-08-16T04:08:23.735Z,65.65
2022-08-16T04:14:58.333Z,65.78
2022-08-16T04:18:34.685Z,65.86
2022-08-16T04:22:08.651Z,65.94
2022-08-16T04:25:58.202Z,66.00
2022-08-16T04:28:53.594Z,66.03
2022-08-16T04:31:57.772Z,66.07
2022-08-16T04:34:38.612Z,66.19
2022-08-16T04:37:18.984Z,66.16
2022-08-16T04:39:57.314Z,66.24
2022-08-16T04:42:35.916Z,66.22
2022-08-16T04:45:36.273Z,66.24
2022-08-16T04:48:32.606Z,66.37
2022-08-16T04:51:14.842Z,66.37
2022-08-16T04:53:47.011Z,66.45
2022-08-16T04:56:24.902Z,66.47
2022-08-16T04:59:00.311Z,66.51
2022-08-16T05:01:55.287Z,66.57
2022-08-16T05:04:30.061Z,66.52
2022-08-16T05:07:06.839Z,66.64
2022-08-16T05:09:53.390Z,66.65
2022-08-16T05:12:30.526Z,66.65
2022-08-16T05:15:03.737Z,66.71
2022-08-16T05:21:01.372Z,66.68
